sensor_id;sensor_type;location;lat;lon;timestamp;pressure;altitude;pressure_sealevel;temperature;humidity
5522;BME280;2783;48.730;8.006;2023-02-18T00:00:34;101154.88;;;13.85;95.33
5522;BME280;2783;48.730;8.006;2023-02-18T00:02:59;101159.22;;;13.89;95.47
5522;BME280;2783;48.730;8.006;2023-02-18T00:05:25;101152.97;;;13.90;95.57
5522;BME280;2783;48.730;8.006;2023-02-18T00:07:50;101153.84;;;13.90;95.69
5522;BME280;2783;48.730;8.006;2023-02-18T00:10:15;101152.13;;;13.88;95.13
5522;BME280;2783;48.730;8.006;2023-02-18T00:12:41;101158.31;;;13.90;94.78
5522;BME280;2783;48.730;8.006;2023-02-18T00:15:06;101150.28;;;13.90;95.29
5522;BME280;2783;48.730;8.006;2023-02-18T00:17:32;101150.25;;;13.91;94.63
5522;BME280;2783;48.730;8.006;2023-02-18T00:19:57;101153.81;;;13.92;94.91
5522;BME280;2783;48.730;8.006;2023-02-18T00:22:22;101152.78;;;13.96;94.82
5522;BME280;2783;48.730;8.006;2023-02-18T00:24:48;101146.59;;;13.94;94.88
5522;BME280;2783;48.730;8.006;2023-02-18T00:27:13;101134.00;;;13.97;94.58
5522;BME280;2783;48.730;8.006;2023-02-18T00:29:38;101130.59;;;13.92;94.79
5522;BME280;2783;48.730;8.006;2023-02-18T00:32:04;101132.44;;;13.90;94.93
5522;BME280;2783;48.730;8.006;2023-02-18T00:34:29;101134.28;;;13.88;95.14
5522;BME280;2783;48.730;8.006;2023-02-18T00:36:54;101133.41;;;13.88;94.66
5522;BME280;2783;48.730;8.006;2023-02-18T00:39:20;101117.16;;;13.94;94.40
5522;BME280;2783;48.730;8.006;2023-02-18T00:41:45;101119.03;;;13.92;95.05
5522;BME280;2783;48.730;8.006;2023-02-18T00:44:10;101127.94;;;13.91;94.80
5522;BME280;2783;48.730;8.006;2023-02-18T00:46:36;101120.97;;;13.87;94.83
5522;BME280;2783;48.730;8.006;2023-02-18T00:49:02;101112.78;;;13.91;94.91
5522;BME280;2783;48.730;8.006;2023-02-18T00:51:28;101126.31;;;13.87;95.00
5522;BME280;2783;48.730;8.006;2023-02-18T00:53:53;101126.31;;;13.87;94.59
5522;BME280;2783;48.730;8.006;2023-02-18T00:56:18;101130.69;;;13.89;94.29
5522;BME280;2783;48.730;8.006;2023-02-18T00:58:44;101124.44;;;13.89;94.32
5522;BME280;2783;48.730;8.006;2023-02-18T01:01:09;101125.31;;;13.89;94.64
5522;BME280;2783;48.730;8.006;2023-02-18T01:03:36;101118.25;;;13.88;94.19
5522;BME280;2783;48.730;8.006;2023-02-18T01:06:01;101123.63;;;13.87;94.61
5522;BME280;2783;48.730;8.006;2023-02-18T01:08:27;101106.75;;;13.85;94.97
5522;BME280;2783;48.730;8.006;2023-02-18T01:10:53;101112.00;;;13.88;94.36
5522;BME280;2783;48.730;8.006;2023-02-18T01:13:19;101109.56;;;13.80;95.00
5522;BME280;2783;48.730;8.006;2023-02-18T01:15:44;101108.66;;;13.80;95.43
5522;BME280;2783;48.730;8.006;2023-02-18T01:18:10;101102.34;;;13.82;95.13
5522;BME280;2783;48.730;8.006;2023-02-18T01:20:36;101099.72;;;13.81;95.55
5522;BME280;2783;48.730;8.006;2023-02-18T01:23:02;101089.81;;;13.84;95.46
5522;BME280;2783;48.730;8.006;2023-02-18T01:25:28;101094.56;;;13.75;95.43
5522;BME280;2783;48.730;8.006;2023-02-18T01:27:53;101095.38;;;13.77;95.71
5522;BME280;2783;48.730;8.006;2023-02-18T01:30:19;101099.91;;;13.75;96.02
5522;BME280;2783;48.730;8.006;2023-02-18T01:32:45;101098.06;;;13.77;96.21
5522;BME280;2783;48.730;8.006;2023-02-18T01:35:11;101107.91;;;13.75;96.43
5522;BME280;2783;48.730;8.006;2023-02-18T01:37:39;101095.44;;;13.75;96.55
5522;BME280;2783;48.730;8.006;2023-02-18T01:40:05;101101.72;;;13.73;96.65
5522;BME280;2783;48.730;8.006;2023-02-18T01:42:31;101104.44;;;13.71;96.53
5522;BME280;2783;48.730;8.006;2023-02-18T01:47:40;101099.00;;;13.74;96.78
5522;BME280;2783;48.730;8.006;2023-02-18T01:50:05;101095.72;;;13.65;97.54
5522;BME280;2783;48.730;8.006;2023-02-18T01:52:31;101089.44;;;13.66;97.23
5522;BME280;2783;48.730;8.006;2023-02-18T01:54:57;101092.13;;;13.66;97.14
5522;BME280;2783;48.730;8.006;2023-02-18T01:57:24;101094.88;;;13.63;97.95
5522;BME280;2783;48.730;8.006;2023-02-18T01:59:52;101098.50;;;13.62;98.08
5522;BME280;2783;48.730;8.006;2023-02-18T02:02:20;101087.78;;;13.62;97.78
5522;BME280;2783;48.730;8.006;2023-02-18T02:04:46;101091.38;;;13.61;98.07
5522;BME280;2783;48.730;8.006;2023-02-18T02:07:12;101096.66;;;13.64;98.23
5522;BME280;2783;48.730;8.006;2023-02-18T02:09:38;101089.53;;;13.63;98.09
5522;BME280;2783;48.730;8.006;2023-02-18T02:25:51;101088.84;;;13.56;99.06
5522;BME280;2783;48.730;8.006;2023-02-18T02:38:43;101094.19;;;13.56;99.02
5522;BME280;2783;48.730;8.006;2023-02-18T02:44:30;101103.97;;;13.57;99.00
5522;BME280;2783;48.730;8.006;2023-02-18T02:46:38;101101.41;;;13.53;98.69
5522;BME280;2783;48.730;8.006;2023-02-18T02:54:19;101088.88;;;13.55;98.77
5522;BME280;2783;48.730;8.006;2023-02-18T02:56:45;101079.97;;;13.54;98.88
5522;BME280;2783;48.730;8.006;2023-02-18T02:59:18;101074.63;;;13.54;98.76
5522;BME280;2783;48.730;8.006;2023-02-18T03:02:07;101077.28;;;13.56;99.01
5522;BME280;2783;48.730;8.006;2023-02-18T03:04:40;101063.22;;;13.48;99.11
5522;BME280;2783;48.730;8.006;2023-02-18T03:09:47;101066.94;;;13.44;99.42
5522;BME280;2783;48.730;8.006;2023-02-18T03:17:35;101056.41;;;13.38;99.61
5522;BME280;2783;48.730;8.006;2023-02-18T03:22:31;101040.53;;;13.32;99.69
5522;BME280;2783;48.730;8.006;2023-02-18T03:24:58;101034.28;;;13.31;99.44
5522;BME280;2783;48.730;8.006;2023-02-18T03:27:26;101026.31;;;13.30;100.00
5522;BME280;2783;48.730;8.006;2023-02-18T03:30:13;101037.00;;;13.30;99.75
5522;BME280;2783;48.730;8.006;2023-02-18T03:32:40;101031.81;;;13.25;100.00
5522;BME280;2783;48.730;8.006;2023-02-18T03:35:08;101028.09;;;13.31;100.00
5522;BME280;2783;48.730;8.006;2023-02-18T03:37:34;101018.44;;;13.25;100.00
5522;BME280;2783;48.730;8.006;2023-02-18T03:40:03;101021.97;;;13.27;100.00
5522;BME280;2783;48.730;8.006;2023-02-18T03:42:29;101023.66;;;13.30;99.96
5522;BME280;2783;48.730;8.006;2023-02-18T03:44:54;101023.75;;;13.27;100.00
5522;BME280;2783;48.730;8.006;2023-02-18T03:47:20;101009.53;;;13.24;99.83
5522;BME280;2783;48.730;8.006;2023-02-18T03:49:45;101010.75;;;13.14;100.00
5522;BME280;2783;48.730;8.006;2023-02-18T03:52:10;101009.84;;;13.14;100.00
5522;BME280;2783;48.730;8.006;2023-02-18T03:54:36;101011.56;;;13.16;100.00
5522;BME280;2783;48.730;8.006;2023-02-18T03:57:01;101012.56;;;13.12;100.00
5522;BME280;2783;48.730;8.006;2023-02-18T03:59:26;101013.31;;;13.17;100.00
5522;BME280;2783;48.730;8.006;2023-02-18T04:01:52;101019.41;;;13.23;100.00
5522;BME280;2783;48.730;8.006;2023-02-18T04:04:17;101011.34;;;13.24;100.00
5522;BME280;2783;48.730;8.006;2023-02-18T04:06:42;101012.19;;;13.26;100.00
5522;BME280;2783;48.730;8.006;2023-02-18T04:09:07;101021.81;;;13.32;100.00
5522;BME280;2783;48.730;8.006;2023-02-18T04:11:34;101017.38;;;13.32;100.00
5522;BME280;2783;48.730;8.006;2023-02-18T04:14:00;101020.91;;;13.33;100.00
5522;BME280;2783;48.730;8.006;2023-02-18T04:16:25;101010.13;;;13.36;100.00
5522;BME280;2783;48.730;8.006;2023-02-18T04:18:50;101021.53;;;13.42;100.00
5522;BME280;2783;48.730;8.006;2023-02-18T04:21:15;101018.91;;;13.41;100.00
5522;BME280;2783;48.730;8.006;2023-02-18T04:23:41;101022.38;;;13.43;100.00
5522;BME280;2783;48.730;8.006;2023-02-18T04:26:06;101016.97;;;13.46;100.00
5522;BME280;2783;48.730;8.006;2023-02-18T04:28:31;101014.34;;;13.44;100.00
5522;BME280;2783;48.730;8.006;2023-02-18T04:30:57;101011.53;;;13.49;100.00
5522;BME280;2783;48.730;8.006;2023-02-18T04:33:22;101008.97;;;13.46;100.00
5522;BME280;2783;48.730;8.006;2023-02-18T04:35:47;100988.47;;;13.45;100.00
5522;BME280;2783;48.730;8.006;2023-02-18T04:38:12;101016.16;;;13.44;100.00
5522;BME280;2783;48.730;8.006;2023-02-18T04:40:38;101013.34;;;13.48;100.00
5522;BME280;2783;48.730;8.006;2023-02-18T04:43:03;101012.44;;;13.48;100.00
5522;BME280;2783;48.730;8.006;2023-02-18T04:45:28;101026.50;;;13.54;100.00
5522;BME280;2783;48.730;8.006;2023-02-18T04:47:54;101022.06;;;13.55;100.00
5522;BME280;2783;48.730;8.006;2023-02-18T04:50:20;101018.50;;;13.54;100.00
5522;BME280;2783;48.730;8.006;2023-02-18T04:52:45;101021.16;;;13.54;100.00
5522;BME280;2783;48.730;8.006;2023-02-18T04:55:10;101014.88;;;13.57;100.00
5522;BME280;2783;48.730;8.006;2023-02-18T04:57:36;101010.41;;;13.57;100.00
5522;BME280;2783;48.730;8.006;2023-02-18T05:00:01;101001.41;;;13.60;100.00
5522;BME280;2783;48.730;8.006;2023-02-18T05:02:30;101007.59;;;13.62;100.00
5522;BME280;2783;48.730;8.006;2023-02-18T05:04:56;101002.34;;;13.59;99.73
5522;BME280;2783;48.730;8.006;2023-02-18T05:07:21;101006.00;;;13.55;100.00
5522;BME280;2783;48.730;8.006;2023-02-18T05:09:46;100993.75;;;13.48;100.00
5522;BME280;2783;48.730;8.006;2023-02-18T05:12:11;100994.56;;;13.50;100.00
5522;BME280;2783;48.730;8.006;2023-02-18T05:14:37;100985.69;;;13.49;100.00
5522;BME280;2783;48.730;8.006;2023-02-18T05:17:02;100979.47;;;13.49;99.67
5522;BME280;2783;48.730;8.006;2023-02-18T05:19:27;100981.31;;;13.47;100.00
5522;BME280;2783;48.730;8.006;2023-02-18T05:21:52;100993.81;;;13.45;99.85
5522;BME280;2783;48.730;8.006;2023-02-18T05:24:18;100982.97;;;13.51;99.43
5522;BME280;2783;48.730;8.006;2023-02-18T05:26:43;100981.94;;;13.55;99.30
5522;BME280;2783;48.730;8.006;2023-02-18T05:29:08;100978.13;;;13.63;98.98
5522;BME280;2783;48.730;8.006;2023-02-18T05:31:34;100973.75;;;13.61;98.62
5522;BME280;2783;48.730;8.006;2023-02-18T05:33:59;100969.28;;;13.61;98.75
5522;BME280;2783;48.730;8.006;2023-02-18T05:36:24;100980.72;;;13.66;98.39
5522;BME280;2783;48.730;8.006;2023-02-18T05:38:50;100966.59;;;13.61;98.26
5522;BME280;2783;48.730;8.006;2023-02-18T05:41:15;100977.41;;;13.58;98.22
5522;BME280;2783;48.730;8.006;2023-02-18T05:43:40;100993.28;;;13.63;98.49
5522;BME280;2783;48.730;8.006;2023-02-18T05:46:24;100979.88;;;13.64;98.08
5522;BME280;2783;48.730;8.006;2023-02-18T05:48:50;100977.19;;;13.64;97.81
5522;BME280;2783;48.730;8.006;2023-02-18T05:51:15;100972.50;;;13.72;97.50
5522;BME280;2783;48.730;8.006;2023-02-18T05:53:40;100978.72;;;13.73;96.58
5522;BME280;2783;48.730;8.006;2023-02-18T05:56:06;100973.38;;;13.73;96.61
5522;BME280;2783;48.730;8.006;2023-02-18T05:58:31;100962.63;;;13.74;96.32
5522;BME280;2783;48.730;8.006;2023-02-18T06:00:56;100968.94;;;13.73;96.15
5522;BME280;2783;48.730;8.006;2023-02-18T06:03:22;100962.53;;;13.79;95.99
5522;BME280;2783;48.730;8.006;2023-02-18T06:05:50;100970.50;;;13.80;95.70
5522;BME280;2783;48.730;8.006;2023-02-18T06:08:16;100967.09;;;13.75;96.12
5522;BME280;2783;48.730;8.006;2023-02-18T06:10:41;100976.81;;;13.78;95.33
5522;BME280;2783;48.730;8.006;2023-02-18T06:13:06;100971.44;;;13.78;95.52
5522;BME280;2783;48.730;8.006;2023-02-18T06:15:31;100972.34;;;13.78;95.73
5522;BME280;2783;48.730;8.006;2023-02-18T06:17:57;100969.72;;;13.77;95.75
5522;BME280;2783;48.730;8.006;2023-02-18T06:20:22;100974.19;;;13.76;95.13
5522;BME280;2783;48.730;8.006;2023-02-18T06:22:47;100974.06;;;13.79;95.75
5522;BME280;2783;48.730;8.006;2023-02-18T06:25:13;100984.69;;;13.82;95.46
5522;BME280;2783;48.730;8.006;2023-02-18T06:27:38;100983.91;;;13.79;95.46
5522;BME280;2783;48.730;8.006;2023-02-18T06:30:03;100979.47;;;13.78;96.32
5522;BME280;2783;48.730;8.006;2023-02-18T06:32:29;100979.78;;;13.69;96.79
5522;BME280;2783;48.730;8.006;2023-02-18T06:34:54;100980.66;;;13.68;96.79
5522;BME280;2783;48.730;8.006;2023-02-18T06:37:19;100987.78;;;13.69;97.75
5522;BME280;2783;48.730;8.006;2023-02-18T06:39:45;100986.13;;;13.65;97.96
5522;BME280;2783;48.730;8.006;2023-02-18T06:42:10;100986.22;;;13.62;97.58
5522;BME280;2783;48.730;8.006;2023-02-18T06:44:35;100986.22;;;13.62;98.10
5522;BME280;2783;48.730;8.006;2023-02-18T06:47:00;100988.78;;;13.65;97.63
5522;BME280;2783;48.730;8.006;2023-02-18T06:49:26;100995.03;;;13.65;97.80
5522;BME280;2783;48.730;8.006;2023-02-18T06:51:51;101004.88;;;13.63;97.49
5522;BME280;2783;48.730;8.006;2023-02-18T06:54:16;100980.75;;;13.65;97.38
5522;BME280;2783;48.730;8.006;2023-02-18T06:56:41;100998.53;;;13.66;97.17
5522;BME280;2783;48.730;8.006;2023-02-18T06:59:07;100993.13;;;13.69;96.59
5522;BME280;2783;48.730;8.006;2023-02-18T07:01:32;100993.94;;;13.71;97.07
5522;BME280;2783;48.730;8.006;2023-02-18T07:03:57;100994.03;;;13.68;96.53
5522;BME280;2783;48.730;8.006;2023-02-18T07:06:23;100997.50;;;13.71;96.55
5522;BME280;2783;48.730;8.006;2023-02-18T07:08:48;100998.38;;;13.72;95.72
5522;BME280;2783;48.730;8.006;2023-02-18T07:11:13;101005.47;;;13.73;96.49
5522;BME280;2783;48.730;8.006;2023-02-18T07:13:38;101008.97;;;13.75;95.69
5522;BME280;2783;48.730;8.006;2023-02-18T07:16:04;100998.19;;;13.78;95.68
5522;BME280;2783;48.730;8.006;2023-02-18T07:18:29;100993.72;;;13.78;95.73
5522;BME280;2783;48.730;8.006;2023-02-18T07:20:54;100980.31;;;13.80;95.11
5522;BME280;2783;48.730;8.006;2023-02-18T07:23:20;100961.84;;;13.71;95.09
5522;BME280;2783;48.730;8.006;2023-02-18T07:25:45;100980.09;;;13.86;95.47
5522;BME280;2783;48.730;8.006;2023-02-18T07:28:10;100980.16;;;13.84;94.84
5522;BME280;2783;48.730;8.006;2023-02-18T07:30:35;100965.91;;;13.84;94.59
5522;BME280;2783;48.730;8.006;2023-02-18T07:33:01;100973.03;;;13.85;94.69
5522;BME280;2783;48.730;8.006;2023-02-18T07:35:26;100977.38;;;13.87;94.72
5522;BME280;2783;48.730;8.006;2023-02-18T07:37:52;100974.53;;;13.93;94.56
5522;BME280;2783;48.730;8.006;2023-02-18T07:40:20;100976.34;;;13.93;93.78
5522;BME280;2783;48.730;8.006;2023-02-18T07:42:46;100981.59;;;13.96;93.50
5522;BME280;2783;48.730;8.006;2023-02-18T07:45:11;100979.75;;;13.98;93.77
5522;BME280;2783;48.730;8.006;2023-02-18T07:47:37;100978.75;;;14.00;93.29
5522;BME280;2783;48.730;8.006;2023-02-18T07:50:03;100983.31;;;13.98;93.05
5522;BME280;2783;48.730;8.006;2023-02-18T07:52:28;100979.66;;;14.01;93.52
5522;BME280;2783;48.730;8.006;2023-02-18T07:54:54;100976.13;;;13.99;92.63
5522;BME280;2783;48.730;8.006;2023-02-18T07:57:19;100978.75;;;14.02;92.48
5522;BME280;2783;48.730;8.006;2023-02-18T07:59:44;100977.91;;;14.00;92.49
5522;BME280;2783;48.730;8.006;2023-02-18T08:02:13;100985.97;;;13.98;92.41
5522;BME280;2783;48.730;8.006;2023-02-18T08:04:40;100988.72;;;13.97;92.19
5522;BME280;2783;48.730;8.006;2023-02-18T08:07:05;100980.69;;;13.97;92.52
5522;BME280;2783;48.730;8.006;2023-02-18T08:09:31;100970.72;;;14.00;92.47
5522;BME280;2783;48.730;8.006;2023-02-18T08:11:56;100975.13;;;14.03;91.90
5522;BME280;2783;48.730;8.006;2023-02-18T08:14:22;100988.31;;;14.09;91.83
5522;BME280;2783;48.730;8.006;2023-02-18T08:16:47;100976.69;;;14.10;91.20
5522;BME280;2783;48.730;8.006;2023-02-18T08:19:13;100972.06;;;14.15;91.27
5522;BME280;2783;48.730;8.006;2023-02-18T08:21:38;100974.66;;;14.18;91.71
5522;BME280;2783;48.730;8.006;2023-02-18T08:24:03;100980.72;;;14.23;91.05
5522;BME280;2783;48.730;8.006;2023-02-18T08:26:29;100973.59;;;14.22;91.35
5522;BME280;2783;48.730;8.006;2023-02-18T08:28:54;100978.81;;;14.28;90.50
5522;BME280;2783;48.730;8.006;2023-02-18T08:31:20;100977.94;;;14.27;90.29
5522;BME280;2783;48.730;8.006;2023-02-18T08:33:46;100997.59;;;14.26;91.25
5522;BME280;2783;48.730;8.006;2023-02-18T08:36:12;100996.63;;;14.29;90.21
5522;BME280;2783;48.730;8.006;2023-02-18T08:38:37;100986.63;;;14.34;90.59
5522;BME280;2783;48.730;8.006;2023-02-18T08:41:03;100986.44;;;14.40;90.82
5522;BME280;2783;48.730;8.006;2023-02-18T08:43:29;100979.22;;;14.42;89.71
5522;BME280;2783;48.730;8.006;2023-02-18T08:45:55;100985.31;;;14.47;90.19
5522;BME280;2783;48.730;8.006;2023-02-18T08:48:21;100980.72;;;14.50;89.60
5522;BME280;2783;48.730;8.006;2023-02-18T08:50:47;100982.41;;;14.53;89.00
5522;BME280;2783;48.730;8.006;2023-02-18T08:53:12;100984.91;;;14.59;88.44
5522;BME280;2783;48.730;8.006;2023-02-18T08:55:38;100986.53;;;14.63;88.02
5522;BME280;2783;48.730;8.006;2023-02-18T08:58:04;100984.81;;;14.62;87.65
5522;BME280;2783;48.730;8.006;2023-02-18T09:00:30;100986.47;;;14.65;87.70
5522;BME280;2783;48.730;8.006;2023-02-18T09:02:56;100978.56;;;14.62;88.17
5522;BME280;2783;48.730;8.006;2023-02-18T09:05:21;100983.81;;;14.65;87.09
5522;BME280;2783;48.730;8.006;2023-02-18T09:07:46;100977.31;;;14.72;86.76
5522;BME280;2783;48.730;8.006;2023-02-18T09:10:12;100971.81;;;14.76;85.76
5522;BME280;2783;48.730;8.006;2023-02-18T09:12:37;100972.69;;;14.77;85.25
5522;BME280;2783;48.730;8.006;2023-02-18T09:15:03;100963.75;;;14.78;84.97
5522;BME280;2783;48.730;8.006;2023-02-18T09:17:28;100967.75;;;14.91;85.40
5522;BME280;2783;48.730;8.006;2023-02-18T09:19:54;100968.34;;;14.99;84.18
5522;BME280;2783;48.730;8.006;2023-02-18T09:22:19;100973.75;;;14.97;83.32
5522;BME280;2783;48.730;8.006;2023-02-18T09:24:44;100962.94;;;15.00;82.76
5522;BME280;2783;48.730;8.006;2023-02-18T09:27:10;100966.38;;;15.04;83.10
5522;BME280;2783;48.730;8.006;2023-02-18T09:29:38;100950.06;;;15.10;82.63
5522;BME280;2783;48.730;8.006;2023-02-18T09:32:05;100948.88;;;15.18;80.85
5522;BME280;2783;48.730;8.006;2023-02-18T09:34:30;100944.63;;;15.36;80.99
5522;BME280;2783;48.730;8.006;2023-02-18T09:36:55;100944.91;;;15.53;79.57
5522;BME280;2783;48.730;8.006;2023-02-18T09:39:21;100948.81;;;15.67;79.08
5522;BME280;2783;48.730;8.006;2023-02-18T09:41:47;100946.63;;;15.77;78.81
5522;BME280;2783;48.730;8.006;2023-02-18T09:49:30;100948.88;;;16.32;76.38
5522;BME280;2783;48.730;8.006;2023-02-18T09:52:01;100956.53;;;16.41;75.41
5522;BME280;2783;48.730;8.006;2023-02-18T09:54:27;100967.97;;;16.25;73.79
5522;BME280;2783;48.730;8.006;2023-02-18T09:56:54;100966.72;;;16.12;74.80
5522;BME280;2783;48.730;8.006;2023-02-18T09:59:20;100960.66;;;16.07;75.76
5522;BME280;2783;48.730;8.006;2023-02-18T10:01:47;100963.66;;;15.99;75.55
5522;BME280;2783;48.730;8.006;2023-02-18T10:04:17;100968.44;;;15.91;76.51
5522;BME280;2783;48.730;8.006;2023-02-18T10:06:43;100978.44;;;15.88;75.97
5522;BME280;2783;48.730;8.006;2023-02-18T10:09:16;100973.75;;;15.93;76.22
5522;BME280;2783;48.730;8.006;2023-02-18T10:11:43;100978.75;;;15.78;74.90
5522;BME280;2783;48.730;8.006;2023-02-18T10:14:10;100976.91;;;15.80;74.77
5522;BME280;2783;48.730;8.006;2023-02-18T10:16:36;100962.31;;;15.88;75.90
5522;BME280;2783;48.730;8.006;2023-02-18T10:19:04;100969.44;;;15.89;75.70
5522;BME280;2783;48.730;8.006;2023-02-18T10:21:33;100978.31;;;15.91;75.55
5522;BME280;2783;48.730;8.006;2023-02-18T10:26:40;100969.25;;;16.15;73.65
5522;BME280;2783;48.730;8.006;2023-02-18T10:29:13;100967.84;;;16.28;73.16
5522;BME280;2783;48.730;8.006;2023-02-18T10:31:40;100978.09;;;16.40;73.15
5522;BME280;2783;48.730;8.006;2023-02-18T10:36:36;100969.41;;;16.33;72.20
5522;BME280;2783;48.730;8.006;2023-02-18T10:39:18;100979.03;;;16.39;72.17
5522;BME280;2783;48.730;8.006;2023-02-18T10:50:12;100978.28;;;16.35;71.86
5522;BME280;2783;48.730;8.006;2023-02-18T10:52:42;100977.34;;;16.58;71.91
5522;BME280;2783;48.730;8.006;2023-02-18T10:55:10;100959.09;;;16.66;70.81
5522;BME280;2783;48.730;8.006;2023-02-18T10:57:45;100967.03;;;16.69;70.43
5522;BME280;2783;48.730;8.006;2023-02-18T11:02:35;100949.56;;;16.59;70.35
5522;BME280;2783;48.730;8.006;2023-02-18T11:05:05;100957.63;;;16.59;70.55
5522;BME280;2783;48.730;8.006;2023-02-18T11:07:32;100956.53;;;16.63;70.34
5522;BME280;2783;48.730;8.006;2023-02-18T11:10:09;100941.09;;;16.68;71.45
5522;BME280;2783;48.730;8.006;2023-02-18T11:17:30;100938.56;;;16.85;70.39
5522;BME280;2783;48.730;8.006;2023-02-18T11:20:00;100942.41;;;16.99;70.25
5522;BME280;2783;48.730;8.006;2023-02-18T11:22:33;100943.06;;;17.04;71.01
5522;BME280;2783;48.730;8.006;2023-02-18T11:25:03;100940.91;;;17.13;70.18
5522;BME280;2783;48.730;8.006;2023-02-18T11:27:37;100931.16;;;17.10;69.66
5522;BME280;2783;48.730;8.006;2023-02-18T11:30:06;100920.00;;;16.99;69.14
5522;BME280;2783;48.730;8.006;2023-02-18T11:32:41;100913.16;;;17.12;68.69
5522;BME280;2783;48.730;8.006;2023-02-18T11:35:15;100919.47;;;17.11;67.57
5522;BME280;2783;48.730;8.006;2023-02-18T11:37:41;100910.31;;;17.15;69.58
5522;BME280;2783;48.730;8.006;2023-02-18T11:40:06;100906.97;;;17.10;67.58
5522;BME280;2783;48.730;8.006;2023-02-18T11:42:32;100901.88;;;17.04;67.91
5522;BME280;2783;48.730;8.006;2023-02-18T11:44:58;100906.97;;;17.10;67.07
5522;BME280;2783;48.730;8.006;2023-02-18T11:47:28;100906.13;;;17.28;67.28
5522;BME280;2783;48.730;8.006;2023-02-18T11:52:45;100900.03;;;17.25;65.79
5522;BME280;2783;48.730;8.006;2023-02-18T11:55:19;100903.66;;;17.24;64.44
5522;BME280;2783;48.730;8.006;2023-02-18T12:02:41;100902.38;;;17.32;63.85
5522;BME280;2783;48.730;8.006;2023-02-18T12:05:23;100901.69;;;17.27;62.28
5522;BME280;2783;48.730;8.006;2023-02-18T12:07:49;100888.09;;;17.30;61.39
5522;BME280;2783;48.730;8.006;2023-02-18T12:12:43;100887.28;;;17.28;61.43
5522;BME280;2783;48.730;8.006;2023-02-18T12:15:13;100896.09;;;17.13;60.98
5522;BME280;2783;48.730;8.006;2023-02-18T12:20:18;100879.97;;;17.13;61.80
5522;BME280;2783;48.730;8.006;2023-02-18T12:46:00;100866.53;;;17.13;62.06
5522;BME280;2783;48.730;8.006;2023-02-18T12:51:06;100854.72;;;17.54;61.20
5522;BME280;2783;48.730;8.006;2023-02-18T12:53:39;100852.63;;;17.96;60.58
5522;BME280;2783;48.730;8.006;2023-02-18T12:58:55;100844.16;;;18.04;57.79
5522;BME280;2783;48.730;8.006;2023-02-18T13:04:20;100846.59;;;17.91;60.71
5522;BME280;2783;48.730;8.006;2023-02-18T13:07:12;100850.34;;;17.89;60.50
5522;BME280;2783;48.730;8.006;2023-02-18T13:12:34;100852.81;;;17.56;61.59
5522;BME280;2783;48.730;8.006;2023-02-18T13:15:16;100867.66;;;17.46;62.22
5522;BME280;2783;48.730;8.006;2023-02-18T13:17:43;100874.44;;;17.16;65.02
5522;BME280;2783;48.730;8.006;2023-02-18T13:20:19;100880.72;;;16.76;67.09
5522;BME280;2783;48.730;8.006;2023-02-18T13:22:46;100876.78;;;16.43;69.43
5522;BME280;2783;48.730;8.006;2023-02-18T13:25:14;100883.44;;;16.13;70.27
5522;BME280;2783;48.730;8.006;2023-02-18T13:30:27;100891.41;;;15.93;72.00
5522;BME280;2783;48.730;8.006;2023-02-18T13:35:34;100883.56;;;15.89;72.02
5522;BME280;2783;48.730;8.006;2023-02-18T13:40:45;100880.31;;;15.80;72.78
5522;BME280;2783;48.730;8.006;2023-02-18T13:43:30;100873.91;;;15.85;72.96
5522;BME280;2783;48.730;8.006;2023-02-18T13:46:12;100870.97;;;15.91;72.99
5522;BME280;2783;48.730;8.006;2023-02-18T13:53:56;100859.34;;;16.12;71.67
5522;BME280;2783;48.730;8.006;2023-02-18T13:56:28;100864.97;;;16.06;71.20
5522;BME280;2783;48.730;8.006;2023-02-18T13:59:38;100871.31;;;15.81;70.76
5522;BME280;2783;48.730;8.006;2023-02-18T14:01:47;100864.66;;;15.92;71.64
5522;BME280;2783;48.730;8.006;2023-02-18T14:10:04;100858.38;;;15.93;71.16
5522;BME280;2783;48.730;8.006;2023-02-18T14:12:37;100860.25;;;15.91;70.50
5522;BME280;2783;48.730;8.006;2023-02-18T14:17:49;100859.06;;;15.98;70.87
5522;BME280;2783;48.730;8.006;2023-02-18T14:21:00;100848.47;;;16.15;70.31
5522;BME280;2783;48.730;8.006;2023-02-18T14:23:00;100843.00;;;16.38;68.78
5522;BME280;2783;48.730;8.006;2023-02-18T14:25:31;100838.59;;;16.37;67.76
5522;BME280;2783;48.730;8.006;2023-02-18T14:28:00;100842.59;;;16.27;68.41
5522;BME280;2783;48.730;8.006;2023-02-18T14:30:37;100849.03;;;16.23;69.02
5522;BME280;2783;48.730;8.006;2023-02-18T14:33:04;100833.78;;;16.23;69.35
5522;BME280;2783;48.730;8.006;2023-02-18T14:35:32;100825.53;;;16.28;68.55
5522;BME280;2783;48.730;8.006;2023-02-18T14:38:21;100832.66;;;16.29;68.07
5522;BME280;2783;48.730;8.006;2023-02-18T14:41:02;100828.91;;;16.33;69.68
5522;BME280;2783;48.730;8.006;2023-02-18T14:46:24;100827.75;;;16.18;69.22
5522;BME280;2783;48.730;8.006;2023-02-18T14:51:36;100829.69;;;15.95;70.14
5522;BME280;2783;48.730;8.006;2023-02-18T14:54:05;100822.53;;;15.94;70.46
5522;BME280;2783;48.730;8.006;2023-02-18T14:56:31;100826.84;;;15.98;70.64
5522;BME280;2783;48.730;8.006;2023-02-18T14:58:57;100822.81;;;15.88;70.07
5522;BME280;2783;48.730;8.006;2023-02-18T15:01:28;100829.09;;;15.87;70.77
5522;BME280;2783;48.730;8.006;2023-02-18T15:03:55;100824.94;;;15.79;71.64
5522;BME280;2783;48.730;8.006;2023-02-18T15:08:52;100818.69;;;15.79;70.77
5522;BME280;2783;48.730;8.006;2023-02-18T15:11:17;100824.94;;;15.79;71.27
5522;BME280;2783;48.730;8.006;2023-02-18T15:13:44;100819.94;;;15.70;71.24
5522;BME280;2783;48.730;8.006;2023-02-18T15:16:15;100829.63;;;15.74;71.33
5522;BME280;2783;48.730;8.006;2023-02-18T15:18:43;100834.53;;;15.85;71.12
5522;BME280;2783;48.730;8.006;2023-02-18T15:21:20;100827.34;;;15.86;71.34
5522;BME280;2783;48.730;8.006;2023-02-18T15:23:46;100831.91;;;15.83;70.94
5522;BME280;2783;48.730;8.006;2023-02-18T15:26:14;100831.72;;;15.88;71.77
5522;BME280;2783;48.730;8.006;2023-02-18T15:31:37;100826.31;;;15.90;71.07
5522;BME280;2783;48.730;8.006;2023-02-18T15:34:15;100831.53;;;15.93;70.83
5522;BME280;2783;48.730;8.006;2023-02-18T15:36:48;100829.72;;;15.93;70.47
5522;BME280;2783;48.730;8.006;2023-02-18T15:39:13;100834.22;;;15.93;71.20
5522;BME280;2783;48.730;8.006;2023-02-18T15:41:38;100828.03;;;15.91;72.03